sensor_id;sensor_type;location;lat;lon;timestamp;P1;durP1;ratioP1;P2;durP2;ratioP2
66012;SDS011;52783;50.502;8.190;2022-09-09T00:04:28;3.70;;;1.40;;
66012;SDS011;52783;50.502;8.190;2022-09-09T00:07:00;3.30;;;1.40;;
66012;SDS011;52783;50.502;8.190;2022-09-09T00:09:45;3.00;;;1.55;;
66012;SDS011;52783;50.502;8.190;2022-09-09T00:14:55;5.78;;;1.55;;
66012;SDS011;52783;50.502;8.190;2022-09-09T00:17:33;9.52;;;1.80;;
66012;SDS011;52783;50.502;8.190;2022-09-09T00:22:38;3.78;;;1.38;;
66012;SDS011;52783;50.502;8.190;2022-09-09T00:25:12;6.80;;;1.52;;
66012;SDS011;52783;50.502;8.190;2022-09-09T00:27:46;5.97;;;1.42;;
66012;SDS011;52783;50.502;8.190;2022-09-09T00:30:26;4.55;;;1.20;;
66012;SDS011;52783;50.502;8.190;2022-09-09T00:35:37;4.55;;;2.03;;
66012;SDS011;52783;50.502;8.190;2022-09-09T00:38:49;7.13;;;1.67;;
66012;SDS011;52783;50.502;8.190;2022-09-09T00:43:35;2.88;;;1.30;;
66012;SDS011;52783;50.502;8.190;2022-09-09T00:46:09;3.67;;;1.58;;
66012;SDS011;52783;50.502;8.190;2022-09-09T00:51:27;3.53;;;1.52;;
66012;SDS011;52783;50.502;8.190;2022-09-09T00:54:09;4.35;;;1.30;;
66012;SDS011;52783;50.502;8.190;2022-09-09T00:59:48;6.65;;;1.67;;
66012;SDS011;52783;50.502;8.190;2022-09-09T01:02:25;7.45;;;1.70;;
66012;SDS011;52783;50.502;8.190;2022-09-09T01:05:06;3.70;;;1.40;;
66012;SDS011;52783;50.502;8.190;2022-09-09T01:07:38;10.18;;;1.70;;
66012;SDS011;52783;50.502;8.190;2022-09-09T01:10:11;4.60;;;1.37;;
66012;SDS011;52783;50.502;8.190;2022-09-09T01:12:50;7.22;;;1.50;;
66012;SDS011;52783;50.502;8.190;2022-09-09T01:15:22;10.07;;;1.95;;
66012;SDS011;52783;50.502;8.190;2022-09-09T01:18:04;4.43;;;1.63;;
66012;SDS011;52783;50.502;8.190;2022-09-09T01:20:39;9.98;;;2.08;;
66012;SDS011;52783;50.502;8.190;2022-09-09T01:23:33;6.03;;;1.42;;
66012;SDS011;52783;50.502;8.190;2022-09-09T01:29:02;5.55;;;1.52;;
66012;SDS011;52783;50.502;8.190;2022-09-09T01:31:36;3.40;;;1.48;;
66012;SDS011;52783;50.502;8.190;2022-09-09T01:34:09;5.57;;;1.65;;
66012;SDS011;52783;50.502;8.190;2022-09-09T01:36:42;4.18;;;1.48;;
66012;SDS011;52783;50.502;8.190;2022-09-09T01:39:18;2.92;;;1.45;;
66012;SDS011;52783;50.502;8.190;2022-09-09T01:41:45;5.10;;;1.60;;
66012;SDS011;52783;50.502;8.190;2022-09-09T01:44:11;3.88;;;1.55;;
66012;SDS011;52783;50.502;8.190;2022-09-09T01:46:37;7.15;;;1.70;;
66012;SDS011;52783;50.502;8.190;2022-09-09T01:49:03;3.22;;;1.23;;
66012;SDS011;52783;50.502;8.190;2022-09-09T01:51:32;6.28;;;1.58;;
66012;SDS011;52783;50.502;8.190;2022-09-09T01:53:58;8.68;;;1.35;;
66012;SDS011;52783;50.502;8.190;2022-09-09T01:56:35;3.25;;;1.60;;
66012;SDS011;52783;50.502;8.190;2022-09-09T02:02:08;10.90;;;2.20;;
66012;SDS011;52783;50.502;8.190;2022-09-09T02:04:51;6.03;;;1.80;;
66012;SDS011;52783;50.502;8.190;2022-09-09T02:13:00;2.70;;;1.30;;
66012;SDS011;52783;50.502;8.190;2022-09-09T02:15:35;4.25;;;1.40;;
66012;SDS011;52783;50.502;8.190;2022-09-09T02:18:25;2.70;;;1.23;;
66012;SDS011;52783;50.502;8.190;2022-09-09T02:21:05;4.63;;;1.40;;
66012;SDS011;52783;50.502;8.190;2022-09-09T02:23:32;3.20;;;1.27;;
66012;SDS011;52783;50.502;8.190;2022-09-09T02:25:59;5.47;;;1.60;;
66012;SDS011;52783;50.502;8.190;2022-09-09T02:28:27;2.83;;;1.50;;
66012;SDS011;52783;50.502;8.190;2022-09-09T02:30:56;4.82;;;1.83;;
66012;SDS011;52783;50.502;8.190;2022-09-09T02:33:24;5.70;;;1.73;;
66012;SDS011;52783;50.502;8.190;2022-09-09T02:35:53;14.20;;;2.13;;
66012;SDS011;52783;50.502;8.190;2022-09-09T02:38:26;7.70;;;1.50;;
66012;SDS011;52783;50.502;8.190;2022-09-09T02:40:57;3.40;;;1.45;;
66012;SDS011;52783;50.502;8.190;2022-09-09T02:43:23;4.63;;;1.30;;
66012;SDS011;52783;50.502;8.190;2022-09-09T02:45:58;4.22;;;1.60;;
66012;SDS011;52783;50.502;8.190;2022-09-09T02:48:40;3.95;;;1.30;;
66012;SDS011;52783;50.502;8.190;2022-09-09T02:51:23;6.28;;;1.50;;
66012;SDS011;52783;50.502;8.190;2022-09-09T02:56:31;6.88;;;1.83;;
66012;SDS011;52783;50.502;8.190;2022-09-09T02:59:04;4.28;;;1.42;;
66012;SDS011;52783;50.502;8.190;2022-09-09T03:01:29;7.03;;;1.50;;
66012;SDS011;52783;50.502;8.190;2022-09-09T03:03:55;6.57;;;2.10;;
66012;SDS011;52783;50.502;8.190;2022-09-09T03:06:20;4.63;;;1.65;;
66012;SDS011;52783;50.502;8.190;2022-09-09T03:08:46;1.60;;;1.30;;
66012;SDS011;52783;50.502;8.190;2022-09-09T03:11:14;3.97;;;1.50;;
66012;SDS011;52783;50.502;8.190;2022-09-09T03:13:40;6.63;;;1.85;;
66012;SDS011;52783;50.502;8.190;2022-09-09T03:16:06;7.50;;;1.60;;
66012;SDS011;52783;50.502;8.190;2022-09-09T03:18:31;3.95;;;1.73;;
66012;SDS011;52783;50.502;8.190;2022-09-09T03:20:57;4.72;;;1.77;;
66012;SDS011;52783;50.502;8.190;2022-09-09T03:23:24;5.90;;;1.50;;
66012;SDS011;52783;50.502;8.190;2022-09-09T03:25:50;5.47;;;1.70;;
66012;SDS011;52783;50.502;8.190;2022-09-09T03:28:17;6.18;;;2.00;;
66012;SDS011;52783;50.502;8.190;2022-09-09T03:30:43;7.47;;;1.67;;
66012;SDS011;52783;50.502;8.190;2022-09-09T03:33:08;6.63;;;1.75;;
66012;SDS011;52783;50.502;8.190;2022-09-09T03:35:34;5.68;;;1.77;;
66012;SDS011;52783;50.502;8.190;2022-09-09T03:37:59;9.00;;;1.95;;
66012;SDS011;52783;50.502;8.190;2022-09-09T03:40:25;7.43;;;2.05;;
66012;SDS011;52783;50.502;8.190;2022-09-09T03:42:51;5.47;;;1.67;;
66012;SDS011;52783;50.502;8.190;2022-09-09T03:45:17;4.35;;;1.60;;
66012;SDS011;52783;50.502;8.190;2022-09-09T03:47:42;12.57;;;2.60;;
66012;SDS011;52783;50.502;8.190;2022-09-09T03:50:08;7.60;;;1.45;;
66012;SDS011;52783;50.502;8.190;2022-09-09T03:52:36;9.48;;;1.60;;
66012;SDS011;52783;50.502;8.190;2022-09-09T03:55:03;9.73;;;1.98;;
66012;SDS011;52783;50.502;8.190;2022-09-09T03:57:29;8.15;;;1.85;;
66012;SDS011;52783;50.502;8.190;2022-09-09T03:59:55;6.65;;;1.75;;
66012;SDS011;52783;50.502;8.190;2022-09-09T04:02:20;3.28;;;1.42;;
66012;SDS011;52783;50.502;8.190;2022-09-09T04:04:46;5.50;;;1.42;;
66012;SDS011;52783;50.502;8.190;2022-09-09T04:07:12;5.10;;;1.90;;
66012;SDS011;52783;50.502;8.190;2022-09-09T04:09:38;4.97;;;1.65;;
66012;SDS011;52783;50.502;8.190;2022-09-09T04:12:03;7.90;;;1.58;;
66012;SDS011;52783;50.502;8.190;2022-09-09T04:14:29;6.05;;;2.03;;
66012;SDS011;52783;50.502;8.190;2022-09-09T04:16:55;6.35;;;1.83;;
66012;SDS011;52783;50.502;8.190;2022-09-09T04:19:22;4.93;;;1.80;;
66012;SDS011;52783;50.502;8.190;2022-09-09T04:21:47;9.20;;;1.95;;
66012;SDS011;52783;50.502;8.190;2022-09-09T04:24:15;4.47;;;1.55;;
66012;SDS011;52783;50.502;8.190;2022-09-09T04:26:41;5.15;;;1.77;;
66012;SDS011;52783;50.502;8.190;2022-09-09T04:29:07;7.07;;;1.98;;
66012;SDS011;52783;50.502;8.190;2022-09-09T04:31:32;4.78;;;1.60;;
66012;SDS011;52783;50.502;8.190;2022-09-09T04:33:58;6.55;;;1.52;;
66012;SDS011;52783;50.502;8.190;2022-09-09T04:36:27;4.15;;;1.35;;
66012;SDS011;52783;50.502;8.190;2022-09-09T04:38:52;6.25;;;1.60;;
66012;SDS011;52783;50.502;8.190;2022-09-09T04:41:18;5.35;;;1.55;;
66012;SDS011;52783;50.502;8.190;2022-09-09T04:43:43;2.67;;;1.42;;
66012;SDS011;52783;50.502;8.190;2022-09-09T04:46:09;5.15;;;1.67;;
66012;SDS011;52783;50.502;8.190;2022-09-09T04:48:35;3.47;;;1.45;;
66012;SDS011;52783;50.502;8.190;2022-09-09T04:51:02;7.43;;;1.90;;
66012;SDS011;52783;50.502;8.190;2022-09-09T04:53:29;5.28;;;1.55;;
66012;SDS011;52783;50.502;8.190;2022-09-09T04:58:51;6.55;;;2.05;;
66012;SDS011;52783;50.502;8.190;2022-09-09T05:01:19;8.50;;;2.00;;
66012;SDS011;52783;50.502;8.190;2022-09-09T05:03:46;7.07;;;1.90;;
66012;SDS011;52783;50.502;8.190;2022-09-09T05:06:16;4.90;;;1.92;;
66012;SDS011;52783;50.502;8.190;2022-09-09T05:08:43;8.45;;;1.80;;
66012;SDS011;52783;50.502;8.190;2022-09-09T05:11:16;5.95;;;2.00;;
66012;SDS011;52783;50.502;8.190;2022-09-09T05:13:47;4.00;;;1.35;;
66012;SDS011;52783;50.502;8.190;2022-09-09T05:16:14;3.65;;;1.60;;
66012;SDS011;52783;50.502;8.190;2022-09-09T05:18:41;4.32;;;1.77;;
66012;SDS011;52783;50.502;8.190;2022-09-09T05:21:08;9.40;;;2.13;;
66012;SDS011;52783;50.502;8.190;2022-09-09T05:23:34;9.05;;;1.67;;
66012;SDS011;52783;50.502;8.190;2022-09-09T05:26:00;5.32;;;1.63;;
66012;SDS011;52783;50.502;8.190;2022-09-09T05:28:27;6.57;;;1.80;;
66012;SDS011;52783;50.502;8.190;2022-09-09T05:30:56;5.65;;;1.70;;
66012;SDS011;52783;50.502;8.190;2022-09-09T05:33:29;9.00;;;1.85;;
66012;SDS011;52783;50.502;8.190;2022-09-09T05:35:59;4.47;;;1.77;;
66012;SDS011;52783;50.502;8.190;2022-09-09T05:38:30;3.80;;;1.52;;
66012;SDS011;52783;50.502;8.190;2022-09-09T05:40:57;5.65;;;1.90;;
66012;SDS011;52783;50.502;8.190;2022-09-09T05:43:23;9.32;;;1.95;;
66012;SDS011;52783;50.502;8.190;2022-09-09T05:45:58;7.20;;;1.98;;
66012;SDS011;52783;50.502;8.190;2022-09-09T05:48:35;5.45;;;1.70;;
66012;SDS011;52783;50.502;8.190;2022-09-09T05:51:02;4.05;;;1.73;;
66012;SDS011;52783;50.502;8.190;2022-09-09T05:53:29;7.85;;;2.05;;
66012;SDS011;52783;50.502;8.190;2022-09-09T05:56:05;8.50;;;2.10;;
66012;SDS011;52783;50.502;8.190;2022-09-09T05:58:39;8.30;;;2.25;;
66012;SDS011;52783;50.502;8.190;2022-09-09T06:01:06;3.60;;;1.60;;
66012;SDS011;52783;50.502;8.190;2022-09-09T06:03:35;5.68;;;1.83;;
66012;SDS011;52783;50.502;8.190;2022-09-09T06:06:05;7.07;;;1.85;;
66012;SDS011;52783;50.502;8.190;2022-09-09T06:08:36;2.72;;;1.50;;
66012;SDS011;52783;50.502;8.190;2022-09-09T06:11:10;5.03;;;1.80;;
66012;SDS011;52783;50.502;8.190;2022-09-09T06:13:37;5.13;;;1.90;;
66012;SDS011;52783;50.502;8.190;2022-09-09T06:16:05;5.80;;;1.50;;
66012;SDS011;52783;50.502;8.190;2022-09-09T06:18:33;9.30;;;1.92;;
66012;SDS011;52783;50.502;8.190;2022-09-09T06:20:59;5.53;;;1.77;;
66012;SDS011;52783;50.502;8.190;2022-09-09T06:23:31;4.40;;;1.83;;
66012;SDS011;52783;50.502;8.190;2022-09-09T06:26:16;5.65;;;1.65;;
66012;SDS011;52783;50.502;8.190;2022-09-09T06:28:46;9.48;;;1.88;;
66012;SDS011;52783;50.502;8.190;2022-09-09T06:31:14;3.78;;;1.50;;
66012;SDS011;52783;50.502;8.190;2022-09-09T06:33:47;4.22;;;1.60;;
66012;SDS011;52783;50.502;8.190;2022-09-09T06:36:15;4.72;;;1.50;;
66012;SDS011;52783;50.502;8.190;2022-09-09T06:38:43;4.88;;;1.52;;
66012;SDS011;52783;50.502;8.190;2022-09-09T06:41:10;4.85;;;2.10;;
66012;SDS011;52783;50.502;8.190;2022-09-09T06:43:37;4.30;;;1.80;;
66012;SDS011;52783;50.502;8.190;2022-09-09T06:46:06;6.72;;;1.75;;
66012;SDS011;52783;50.502;8.190;2022-09-09T06:48:35;4.25;;;1.70;;
66012;SDS011;52783;50.502;8.190;2022-09-09T06:51:06;6.65;;;1.90;;
66012;SDS011;52783;50.502;8.190;2022-09-09T06:53:34;5.28;;;1.60;;
66012;SDS011;52783;50.502;8.190;2022-09-09T06:56:01;8.32;;;1.95;;
66012;SDS011;52783;50.502;8.190;2022-09-09T06:58:42;6.40;;;1.52;;
66012;SDS011;52783;50.502;8.190;2022-09-09T07:01:09;7.20;;;1.50;;
66012;SDS011;52783;50.502;8.190;2022-09-09T07:03:37;5.80;;;1.85;;
66012;SDS011;52783;50.502;8.190;2022-09-09T07:06:04;3.80;;;1.70;;
66012;SDS011;52783;50.502;8.190;2022-09-09T07:08:30;3.90;;;1.50;;
66012;SDS011;52783;50.502;8.190;2022-09-09T07:11:01;3.67;;;1.42;;
66012;SDS011;52783;50.502;8.190;2022-09-09T07:13:30;7.53;;;2.00;;
66012;SDS011;52783;50.502;8.190;2022-09-09T07:16:03;4.75;;;1.52;;
66012;SDS011;52783;50.502;8.190;2022-09-09T07:18:34;5.78;;;1.50;;
66012;SDS011;52783;50.502;8.190;2022-09-09T07:20:59;6.47;;;1.80;;
66012;SDS011;52783;50.502;8.190;2022-09-09T07:23:27;6.97;;;1.50;;
66012;SDS011;52783;50.502;8.190;2022-09-09T07:25:53;8.77;;;1.92;;
66012;SDS011;52783;50.502;8.190;2022-09-09T07:28:22;6.75;;;1.65;;
66012;SDS011;52783;50.502;8.190;2022-09-09T07:30:55;9.05;;;2.15;;
66012;SDS011;52783;50.502;8.190;2022-09-09T07:33:22;5.55;;;1.67;;
66012;SDS011;52783;50.502;8.190;2022-09-09T07:35:48;5.15;;;1.80;;
66012;SDS011;52783;50.502;8.190;2022-09-09T07:38:14;6.07;;;1.83;;
66012;SDS011;52783;50.502;8.190;2022-09-09T07:40:40;11.75;;;2.00;;
66012;SDS011;52783;50.502;8.190;2022-09-09T07:43:06;3.42;;;1.40;;
66012;SDS011;52783;50.502;8.190;2022-09-09T07:45:32;5.25;;;1.98;;
66012;SDS011;52783;50.502;8.190;2022-09-09T07:47:59;5.97;;;1.80;;
66012;SDS011;52783;50.502;8.190;2022-09-09T07:50:25;4.55;;;1.52;;
66012;SDS011;52783;50.502;8.190;2022-09-09T07:52:51;5.38;;;1.63;;
66012;SDS011;52783;50.502;8.190;2022-09-09T07:55:18;6.88;;;1.50;;
66012;SDS011;52783;50.502;8.190;2022-09-09T07:57:44;4.25;;;1.40;;
66012;SDS011;52783;50.502;8.190;2022-09-09T08:00:10;5.38;;;1.95;;
66012;SDS011;52783;50.502;8.190;2022-09-09T08:02:36;9.50;;;1.90;;
66012;SDS011;52783;50.502;8.190;2022-09-09T08:05:02;5.30;;;2.05;;
66012;SDS011;52783;50.502;8.190;2022-09-09T08:07:28;6.47;;;1.85;;
66012;SDS011;52783;50.502;8.190;2022-09-09T08:09:54;6.72;;;1.65;;
66012;SDS011;52783;50.502;8.190;2022-09-09T08:12:20;5.75;;;1.98;;
66012;SDS011;52783;50.502;8.190;2022-09-09T08:14:46;3.72;;;1.50;;
66012;SDS011;52783;50.502;8.190;2022-09-09T08:17:13;8.05;;;2.08;;
66012;SDS011;52783;50.502;8.190;2022-09-09T08:19:39;7.70;;;1.73;;
66012;SDS011;52783;50.502;8.190;2022-09-09T08:22:04;6.32;;;1.40;;
66012;SDS011;52783;50.502;8.190;2022-09-09T08:24:30;7.13;;;1.75;;
66012;SDS011;52783;50.502;8.190;2022-09-09T08:26:55;10.80;;;1.83;;
66012;SDS011;52783;50.502;8.190;2022-09-09T08:29:21;8.07;;;1.85;;
66012;SDS011;52783;50.502;8.190;2022-09-09T08:31:50;9.70;;;1.60;;
66012;SDS011;52783;50.502;8.190;2022-09-09T08:34:19;7.85;;;1.80;;
66012;SDS011;52783;50.502;8.190;2022-09-09T08:36:46;7.22;;;1.83;;
66012;SDS011;52783;50.502;8.190;2022-09-09T08:39:13;6.72;;;1.88;;
66012;SDS011;52783;50.502;8.190;2022-09-09T08:46:57;4.25;;;1.63;;
66012;SDS011;52783;50.502;8.190;2022-09-09T08:52:39;3.42;;;1.45;;
66012;SDS011;52783;50.502;8.190;2022-09-09T08:58:11;6.28;;;1.88;;
66012;SDS011;52783;50.502;8.190;2022-09-09T09:08:39;3.72;;;1.58;;
66012;SDS011;52783;50.502;8.190;2022-09-09T09:11:26;11.05;;;1.52;;
66012;SDS011;52783;50.502;8.190;2022-09-09T09:13:53;5.70;;;1.75;;
66012;SDS011;52783;50.502;8.190;2022-09-09T09:16:39;10.63;;;1.87;;
66012;SDS011;52783;50.502;8.190;2022-09-09T09:19:13;9.95;;;1.60;;
66012;SDS011;52783;50.502;8.190;2022-09-09T09:21:41;3.95;;;1.52;;
66012;SDS011;52783;50.502;8.190;2022-09-09T09:24:19;4.93;;;1.80;;
66012;SDS011;52783;50.502;8.190;2022-09-09T09:26:48;2.10;;;1.35;;
66012;SDS011;52783;50.502;8.190;2022-09-09T09:29:15;7.57;;;1.90;;
66012;SDS011;52783;50.502;8.190;2022-09-09T09:31:45;6.55;;;1.90;;
66012;SDS011;52783;50.502;8.190;2022-09-09T09:34:17;4.53;;;1.40;;
66012;SDS011;52783;50.502;8.190;2022-09-09T09:36:51;6.72;;;1.67;;
66012;SDS011;52783;50.502;8.190;2022-09-09T09:39:30;5.32;;;1.58;;
66012;SDS011;52783;50.502;8.190;2022-09-09T09:42:07;6.65;;;1.92;;
66012;SDS011;52783;50.502;8.190;2022-09-09T09:44:39;5.88;;;1.65;;
66012;SDS011;52783;50.502;8.190;2022-09-09T09:47:15;6.25;;;1.30;;
66012;SDS011;52783;50.502;8.190;2022-09-09T09:49:58;4.70;;;1.40;;
66012;SDS011;52783;50.502;8.190;2022-09-09T09:52:31;7.78;;;1.33;;
66012;SDS011;52783;50.502;8.190;2022-09-09T09:54:57;6.10;;;1.73;;
66012;SDS011;52783;50.502;8.190;2022-09-09T09:57:26;4.15;;;1.58;;
66012;SDS011;52783;50.502;8.190;2022-09-09T10:02:49;3.80;;;1.15;;
66012;SDS011;52783;50.502;8.190;2022-09-09T10:13:11;4.32;;;1.50;;
66012;SDS011;52783;50.502;8.190;2022-09-09T10:15:50;7.95;;;1.85;;
66012;SDS011;52783;50.502;8.190;2022-09-09T10:18:34;6.50;;;1.48;;
66012;SDS011;52783;50.502;8.190;2022-09-09T10:21:03;2.08;;;1.35;;
66012;SDS011;52783;50.502;8.190;2022-09-09T10:29:35;7.10;;;1.90;;
66012;SDS011;52783;50.502;8.190;2022-09-09T10:40:34;4.38;;;1.30;;
66012;SDS011;52783;50.502;8.190;2022-09-09T10:43:04;4.50;;;1.73;;
66012;SDS011;52783;50.502;8.190;2022-09-09T10:46:04;7.35;;;1.70;;
66012;SDS011;52783;50.502;8.190;2022-09-09T10:51:46;5.93;;;1.52;;
66012;SDS011;52783;50.502;8.190;2022-09-09T10:54:24;9.20;;;1.70;;
66012;SDS011;52783;50.502;8.190;2022-09-09T10:59:26;9.25;;;1.52;;
66012;SDS011;52783;50.502;8.190;2022-09-09T11:07:19;4.60;;;1.67;;
66012;SDS011;52783;50.502;8.190;2022-09-09T11:09:54;4.32;;;1.35;;
66012;SDS011;52783;50.502;8.190;2022-09-09T11:17:26;2.13;;;1.05;;
66012;SDS011;52783;50.502;8.190;2022-09-09T11:20:14;5.13;;;1.35;;
66012;SDS011;52783;50.502;8.190;2022-09-09T11:22:43;4.30;;;1.75;;
66012;SDS011;52783;50.502;8.190;2022-09-09T11:25:21;3.58;;;1.35;;
66012;SDS011;52783;50.502;8.190;2022-09-09T11:44:39;9.73;;;1.30;;
66012;SDS011;52783;50.502;8.190;2022-09-09T11:47:15;8.38;;;1.60;;
66012;SDS011;52783;50.502;8.190;2022-09-09T11:52:41;3.60;;;1.30;;
66012;SDS011;52783;50.502;8.190;2022-09-09T11:55:32;4.82;;;1.38;;
66012;SDS011;52783;50.502;8.190;2022-09-09T12:00:39;7.97;;;1.63;;
66012;SDS011;52783;50.502;8.190;2022-09-09T12:03:31;1.35;;;0.75;;
66012;SDS011;52783;50.502;8.190;2022-09-09T12:08:51;4.57;;;0.80;;
66012;SDS011;52783;50.502;8.190;2022-09-09T12:11:25;10.80;;;1.55;;
66012;SDS011;52783;50.502;8.190;2022-09-09T12:13:53;4.68;;;1.48;;
66012;SDS011;52783;50.502;8.190;2022-09-09T12:16:28;2.80;;;1.38;;
66012;SDS011;52783;50.502;8.190;2022-09-09T12:19:04;5.22;;;1.08;;
66012;SDS011;52783;50.502;8.190;2022-09-09T12:24:16;5.28;;;1.35;;
66012;SDS011;52783;50.502;8.190;2022-09-09T12:29:33;3.60;;;1.40;;
66012;SDS011;52783;50.502;8.190;2022-09-09T12:34:42;3.22;;;1.17;;
66012;SDS011;52783;50.502;8.190;2022-09-09T12:37:16;5.65;;;1.80;;
66012;SDS011;52783;50.502;8.190;2022-09-09T12:39:59;4.72;;;1.38;;
66012;SDS011;52783;50.502;8.190;2022-09-09T12:42:27;4.25;;;1.60;;
66012;SDS011;52783;50.502;8.190;2022-09-09T12:44:54;6.78;;;1.23;;
66012;SDS011;52783;50.502;8.190;2022-09-09T12:47:23;4.10;;;1.55;;
66012;SDS011;52783;50.502;8.190;2022-09-09T12:52:32;5.10;;;1.42;;
66012;SDS011;52783;50.502;8.190;2022-09-09T12:55:03;3.92;;;1.13;;
66012;SDS011;52783;50.502;8.190;2022-09-09T12:57:34;2.28;;;1.35;;
66012;SDS011;52783;50.502;8.190;2022-09-09T13:00:13;4.22;;;1.65;;
66012;SDS011;52783;50.502;8.190;2022-09-09T13:02:46;5.38;;;1.15;;
66012;SDS011;52783;50.502;8.190;2022-09-09T13:05:18;3.65;;;1.23;;
66012;SDS011;52783;50.502;8.190;2022-09-09T13:07:46;5.72;;;1.30;;
66012;SDS011;52783;50.502;8.190;2022-09-09T13:10:13;10.55;;;1.48;;
66012;SDS011;52783;50.502;8.190;2022-09-09T13:12:40;4.93;;;1.05;;
66012;SDS011;52783;50.502;8.190;2022-09-09T13:15:16;0.93;;;0.57;;
66012;SDS011;52783;50.502;8.190;2022-09-09T13:17:51;2.97;;;0.80;;
66012;SDS011;52783;50.502;8.190;2022-09-09T13:20:20;5.55;;;0.93;;
66012;SDS011;52783;50.502;8.190;2022-09-09T13:22:47;4.35;;;0.70;;
66012;SDS011;52783;50.502;8.190;2022-09-09T13:25:20;1.15;;;0.60;;
66012;SDS011;52783;50.502;8.190;2022-09-09T13:27:54;1.83;;;0.73;;
66012;SDS011;52783;50.502;8.190;2022-09-09T13:35:47;1.90;;;0.93;;
66012;SDS011;52783;50.502;8.190;2022-09-09T13:38:15;4.47;;;1.20;;
66012;SDS011;52783;50.502;8.190;2022-09-09T13:40:51;3.38;;;1.00;;
66012;SDS011;52783;50.502;8.190;2022-09-09T13:43:26;2.25;;;0.77;;
66012;SDS011;52783;50.502;8.190;2022-09-09T13:45:57;5.97;;;1.08;;
66012;SDS011;52783;50.502;8.190;2022-09-09T13:48:25;2.78;;;0.82;;
66012;SDS011;52783;50.502;8.190;2022-09-09T13:50:55;5.45;;;1.23;;
66012;SDS011;52783;50.502;8.190;2022-09-09T13:53:25;5.60;;;1.20;;
66012;SDS011;52783;50.502;8.190;2022-09-09T13:55:52;3.00;;;1.02;;
66012;SDS011;52783;50.502;8.190;2022-09-09T13:58:18;3.35;;;1.00;;
66012;SDS011;52783;50.502;8.190;2022-09-09T14:00:44;7.50;;;1.27;;
66012;SDS011;52783;50.502;8.190;2022-09-09T14:03:10;3.88;;;1.65;;
66012;SDS011;52783;50.502;8.190;2022-09-09T14:05:36;4.65;;;1.50;;
66012;SDS011;52783;50.502;8.190;2022-09-09T14:08:05;3.25;;;1.25;;
66012;SDS011;52783;50.502;8.190;2022-09-09T14:10:32;4.32;;;1.40;;
66012;SDS011;52783;50.502;8.190;2022-09-09T14:13:02;3.92;;;1.23;;
66012;SDS011;52783;50.502;8.190;2022-09-09T14:15:27;2.72;;;1.20;;
66012;SDS011;52783;50.502;8.190;2022-09-09T14:17:54;7.15;;;1.48;;
66012;SDS011;52783;50.502;8.190;2022-09-09T14:20:19;3.83;;;1.40;;
66012;SDS011;52783;50.502;8.190;2022-09-09T14:22:45;4.03;;;1.42;;
66012;SDS011;52783;50.502;8.190;2022-09-09T14:25:11;2.15;;;1.00;;
66012;SDS011;52783;50.502;8.190;2022-09-09T14:27:38;11.20;;;1.45;;
66012;SDS011;52783;50.502;8.190;2022-09-09T14:30:04;6.30;;;1.70;;
66012;SDS011;52783;50.502;8.190;2022-09-09T14:32:31;2.13;;;1.17;;
66012;SDS011;52783;50.502;8.190;2022-09-09T14:34:56;4.30;;;1.17;;
66012;SDS011;52783;50.502;8.190;2022-09-09T14:37:22;5.13;;;0.73;;
66012;SDS011;52783;50.502;8.190;2022-09-09T14:39:47;1.08;;;0.40;;
66012;SDS011;52783;50.502;8.190;2022-09-09T14:42:15;5.55;;;0.70;;
66012;SDS011;52783;50.502;8.190;2022-09-09T14:44:41;4.90;;;0.55;;
66012;SDS011;52783;50.502;8.190;2022-09-09T14:47:06;1.00;;;0.68;;
66012;SDS011;52783;50.502;8.190;2022-09-09T14:49:33;3.22;;;0.70;;
66012;SDS011;52783;50.502;8.190;2022-09-09T14:51:59;4.43;;;0.77;;
66012;SDS011;52783;50.502;8.190;2022-09-09T14:54:24;1.02;;;0.70;;
66012;SDS011;52783;50.502;8.190;2022-09-09T14:56:50;3.10;;;1.10;;
66012;SDS011;52783;50.502;8.190;2022-09-09T14:59:15;3.67;;;1.10;;
66012;SDS011;52783;50.502;8.190;2022-09-09T15:01:41;2.75;;;1.10;;
66012;SDS011;52783;50.502;8.190;2022-09-09T15:04:06;3.28;;;1.45;;
66012;SDS011;52783;50.502;8.190;2022-09-09T15:06:33;1.15;;;0.68;;
66012;SDS011;52783;50.502;8.190;2022-09-09T15:09:03;1.23;;;0.63;;
66012;SDS011;52783;50.502;8.190;2022-09-09T15:11:29;2.30;;;0.52;;
66012;SDS011;52783;50.502;8.190;2022-09-09T15:13:57;2.90;;;1.00;;
66012;SDS011;52783;50.502;8.190;2022-09-09T15:16:24;6.30;;;1.38;;
66012;SDS011;52783;50.502;8.190;2022-09-09T15:18:53;2.30;;;1.13;;
66012;SDS011;52783;50.502;8.190;2022-09-09T15:21:20;6.35;;;0.90;;
66012;SDS011;52783;50.502;8.190;2022-09-09T15:23:48;4.20;;;1.13;;
66012;SDS011;52783;50.502;8.190;2022-09-09T15:26:14;2.35;;;1.05;;
66012;SDS011;52783;50.502;8.190;2022-09-09T15:28:40;3.25;;;1.10;;
66012;SDS011;52783;50.502;8.190;2022-09-09T15:31:13;4.07;;;1.33;;
66012;SDS011;52783;50.502;8.190;2022-09-09T15:33:40;4.88;;;1.45;;
66012;SDS011;52783;50.502;8.190;2022-09-09T15:37:07;1.98;;;1.00;;
66012;SDS011;52783;50.502;8.190;2022-09-09T15:39:06;3.92;;;1.20;;
66012;SDS011;52783;50.502;8.190;2022-09-09T15:41:34;2.38;;;1.08;;
66012;SDS011;52783;50.502;8.190;2022-09-09T15:44:01;2.78;;;0.88;;
66012;SDS011;52783;50.502;8.190;2022-09-09T15:48:53;3.65;;;1.20;;
66012;SDS011;52783;50.502;8.190;2022-09-09T15:51:20;8.52;;;1.70;;
66012;SDS011;52783;50.502;8.190;2022-09-09T15:53:48;7.40;;;1.13;;
66012;SDS011;52783;50.502;8.190;2022-09-09T15:56:18;7.00;;;1.55;;
66012;SDS011;52783;50.502;8.190;2022-09-09T15:58:43;7.30;;;1.10;;
66012;SDS011;52783;50.502;8.190;2022-09-09T16:01:09;4.55;;;0.93;;
66012;SDS011;52783;50.502;8.190;2022-09-09T16:03:41;0.80;;;0.52;;
66012;SDS011;52783;50.502;8.190;2022-09-09T16:06:07;6.57;;;1.15;;
66012;SDS011;52783;50.502;8.190;2022-09-09T16:11:07;4.55;;;1.23;;
66012;SDS011;52783;50.502;8.190;2022-09-09T16:13:38;3.13;;;1.00;;
66012;SDS011;52783;50.502;8.190;2022-09-09T16:16:04;2.40;;;0.75;;
66012;SDS011;52783;50.502;8.190;2022-09-09T16:18:38;0.73;;;0.73;;
66012;SDS011;52783;50.502;8.190;2022-09-09T16:21:13;2.88;;;1.52;;
66012;SDS011;52783;50.502;8.190;2022-09-09T16:23:41;8.85;;;1.10;;
66012;SDS011;52783;50.502;8.190;2022-09-09T16:26:08;1.83;;;1.05;;
66012;SDS011;52783;50.502;8.190;2022-09-09T16:28:35;6.22;;;1.60;;
66012;SDS011;52783;50.502;8.190;2022-09-09T16:31:03;0.82;;;0.80;;
66012;SDS011;52783;50.502;8.190;2022-09-09T16:33:31;3.60;;;1.25;;
66012;SDS011;52783;50.502;8.190;2022-09-09T16:35:56;1.75;;;1.00;;
66012;SDS011;52783;50.502;8.190;2022-09-09T16:38:22;3.83;;;1.25;;
66012;SDS011;52783;50.502;8.190;2022-09-09T16:40:47;1.85;;;0.65;;
66012;SDS011;52783;50.502;8.190;2022-09-09T16:43:15;2.78;;;0.82;;
66012;SDS011;52783;50.502;8.190;2022-09-09T16:45:41;4.80;;;1.20;;
66012;SDS011;52783;50.502;8.190;2022-09-09T16:48:08;2.90;;;1.17;;
66012;SDS011;52783;50.502;8.190;2022-09-09T16:50:33;3.78;;;1.00;;
66012;SDS011;52783;50.502;8.190;2022-09-09T16:52:59;5.22;;;1.20;;
66012;SDS011;52783;50.502;8.190;2022-09-09T16:55:27;10.40;;;1.85;;
66012;SDS011;52783;50.502;8.190;2022-09-09T16:57:53;5.03;;;1.23;;
66012;SDS011;52783;50.502;8.190;2022-09-09T17:00:18;5.18;;;1.25;;
66012;SDS011;52783;50.502;8.190;2022-09-09T17:02:44;3.40;;;1.30;;
66012;SDS011;52783;50.502;8.190;2022-09-09T17:05:10;6.15;;;1.13;;
66012;SDS011;52783;50.502;8.190;2022-09-09T17:07:36;3.60;;;1.20;;
66012;SDS011;52783;50.502;8.190;2022-09-09T17:10:03;3.60;;;1.45;;
66012;SDS011;52783;50.502;8.190;2022-09-09T17:12:30;6.75;;;1.63;;
66012;SDS011;52783;50.502;8.190;2022-09-09T17:14:57;4.53;;;1.35;;
66012;SDS011;52783;50.502;8.190;2022-09-09T17:17:24;2.58;;;0.95;;
66012;SDS011;52783;50.502;8.190;2022-09-09T17:19:50;5.15;;;1.35;;
66012;SDS011;52783;50.502;8.190;2022-09-09T17:22:15;4.43;;;1.40;;
66012;SDS011;52783;50.502;8.190;2022-09-09T17:24:41;5.70;;;1.35;;
66012;SDS011;52783;50.502;8.190;2022-09-09T17:27:07;4.28;;;1.38;;